Página principal
METAR-TAF:

METAR-TAF

Aeroportos :

Nouakchott, Mauritânia

Aeroporto Internacional Nouakchott-Oumtounsy

latitude: 18-18-36N, longitude: 015-58-11W, altura: 3 m

Observação actual do tempo

O boletim foi feito há 34 minutos, às 10:30 UTC
Vento 11 kt de este
Temperatura 35°C
Humidade 14%
Pressão 1015 hPa
Visibilidade: 7000 m

METAR: GQNO 181030Z 09011KT 7000 NSC 35/04 Q1015 NOSIG

Hora: 11:04 (11:04 UTC)

Previsão

O boletim foi feito há 6 horas e 4 minutos, às 05:00 UTC
Previsão válida de 18 às 06 UTC a 19 às 12 UTC
Vento 12 kt de nor-nordeste
Visibilidade: 6000 m
Tornando-se
de 18 às 08 UTC a 18 às 11 UTC
Vento 12 kt de este
Visibilidade: 4000 m
Poeira levantada pelo vento
Tornando-se
de 18 às 14 UTC a 18 às 17 UTC
Vento 12 kt de nor-noroeste
Visibilidade: 7000 m

TAF: GQNO 180500Z 1806/1912 02012KT 6000 NSC BECMG 1808/1811 08012KT 4000 BLDU BECMG 1814/1817 34012KT 7000

Observações e previsões do tempo de mais de 4000 aeroportos (mensagens METAR e TAF).

As estações disponíveis são os pontos amarelos e vermelhos sobre o mapa.

Mova o rato sobre o mapa para ver o nome da estação.

Depois clique no ponto para visualizar as observações e previsões meteorológicas.

Para alterar o mapa : clique nos botões verdes com uma cruz preta para aumentar o zoom; no botão verde com uma pitada de zoom; ou nas setas verdes para mapas adjacentes.


METAR-TAF: